Time;durP1;ratioP1;P1;durP2;ratioP2;P2;SDS_P1;SDS_P2;PMS_P1;PMS_P2;Temp;Humidity;BMP_temperature;BMP_pressure;BME280_temperature;BME280_humidity;BME280_pressure;Samples;Min_cycle;Max_cycle;Signal;HPM_P1;HPM_P2
2024/04/06 00:02:04;;;;;;;9.48;2.70;;;;;;;13.52;95.52;101128.38;4993060;28;20186;-63
2024/04/06 00:04:30;;;;;;;12.60;3.33;;;;;;;13.56;95.87;101127.25;4992230;28;20197;-63
2024/04/06 00:06:56;;;;;;;15.65;3.17;;;;;;;13.40;96.71;101128.13;4993268;28;20194;-63
2024/04/06 00:09:21;;;;;;;13.32;2.88;;;;;;;13.39;98.17;101119.19;4993510;28;20607;-63
2024/04/06 00:11:47;;;;;;;12.98;3.03;;;;;;;13.50;97.84;101121.31;4993245;28;20185;-63
2024/04/06 00:14:12;;;;;;;15.93;3.58;;;;;;;13.51;98.45;101123.94;4993226;28;20249;-63
2024/04/06 00:16:37;;;;;;;14.85;3.30;;;;;;;13.51;98.63;101106.94;4993198;28;20225;-63
2024/04/06 00:19:03;;;;;;;18.30;3.42;;;;;;;13.57;98.77;101117.38;4993289;28;20209;-63
2024/04/06 00:21:28;;;;;;;11.63;4.05;;;;;;;13.66;98.86;101119.59;4993564;28;20193;-63
2024/04/06 00:23:54;;;;;;;10.60;2.72;;;;;;;13.68;98.95;101125.75;4993126;28;20190;-63
2024/04/06 00:26:19;;;;;;;19.98;3.53;;;;;;;13.84;98.33;101127.66;4992166;28;20660;-63
2024/04/06 00:28:44;;;;;;;13.02;3.33;;;;;;;13.83;98.50;101125.94;4993205;28;20185;-63
2024/04/06 00:31:10;;;;;;;9.60;2.70;;;;;;;13.93;98.20;101126.31;4993218;28;20276;-63
2024/04/06 00:33:35;;;;;;;13.45;2.88;;;;;;;13.95;97.15;101103.75;4993145;28;20210;-64
2024/04/06 00:36:00;;;;;;;12.63;3.30;;;;;;;13.98;98.50;101130.53;4993022;28;20618;-63
2024/04/06 00:38:26;;;;;;;16.65;3.75;;;;;;;13.92;98.92;101130.84;4993014;28;20238;-63
2024/04/06 00:40:51;;;;;;;12.57;3.97;;;;;;;14.02;97.81;101109.66;4992955;28;20244;-63
2024/04/06 00:43:17;;;;;;;15.77;3.13;;;;;;;14.15;97.17;101123.34;4993325;28;20212;-63
2024/04/06 00:45:43;;;;;;;14.45;3.47;;;;;;;14.22;97.21;101128.31;4992970;28;20182;-63
2024/04/06 00:48:09;;;;;;;13.80;3.25;;;;;;;14.10;97.51;101120.91;4993175;28;20260;-63
2024/04/06 00:50:35;;;;;;;12.82;3.60;;;;;;;14.09;98.07;101121.88;4995980;28;20182;-63
2024/04/06 00:53:00;;;;;;;12.52;2.53;;;;;;;14.25;97.10;101128.16;4996586;28;20690;-63
2024/04/06 00:55:26;;;;;;;23.17;2.85;;;;;;;14.40;96.22;101133.69;4996395;28;20186;-63
2024/04/06 00:57:51;;;;;;;16.92;3.45;;;;;;;14.42;96.13;101132.63;4996556;28;20232;-63
2024/04/06 01:00:17;;;;;;;15.60;3.40;;;;;;;14.53;95.50;101125.78;4996157;28;20229;-63
2024/04/06 01:02:42;;;;;;;14.15;3.10;;;;;;;14.50;95.73;101136.75;4996419;28;20548;-63
2024/04/06 01:05:08;;;;;;;12.35;2.42;;;;;;;14.62;95.10;101128.91;4996279;28;20229;-63
2024/04/06 01:07:33;;;;;;;10.70;3.00;;;;;;;14.62;95.08;101119.91;4996379;28;20611;-63
2024/04/06 01:09:59;;;;;;;10.52;3.03;;;;;;;14.64;94.07;101112.63;4995973;28;20236;-63
2024/04/06 01:12:25;;;;;;;8.13;3.30;;;;;;;14.55;94.78;101102.34;4996450;28;20193;-63
2024/04/06 01:14:50;;;;;;;10.50;2.78;;;;;;;14.63;94.26;101110.88;4996190;28;20205;-63
2024/04/06 01:17:18;;;;;;;12.15;3.13;;;;;;;14.66;93.55;101112.53;4996059;28;20202;-63
2024/04/06 01:19:43;;;;;;;18.38;3.20;;;;;;;14.62;93.44;101101.94;4996038;28;20542;-63
2024/04/06 01:22:09;;;;;;;9.80;2.75;;;;;;;14.52;93.41;101092.56;4996121;28;20209;-63
2024/04/06 01:24:35;;;;;;;14.18;2.95;;;;;;;14.62;93.37;101114.53;4996015;28;20200;-63
2024/04/06 01:27:00;;;;;;;10.90;2.92;;;;;;;14.61;93.35;101110.09;4996351;28;20194;-63
2024/04/06 01:29:27;;;;;;;9.52;2.42;;;;;;;14.56;93.19;101099.53;4996155;28;20189;-63
2024/04/06 01:31:53;;;;;;;19.42;3.30;;;;;;;14.56;93.60;101110.34;4978519;28;20273;-63
2024/04/06 01:34:19;;;;;;;14.80;3.45;;;;;;;14.58;93.23;101105.72;4995707;28;20304;-63
2024/04/06 01:36:44;;;;;;;11.02;3.65;;;;;;;14.55;93.23;101105.03;4995636;28;20197;-63
2024/04/06 01:39:11;;;;;;;13.02;2.85;;;;;;;14.42;93.36;101099.41;4995699;28;20189;-63
2024/04/06 01:41:37;;;;;;;13.43;2.80;;;;;;;14.36;94.16;101103.31;4996197;28;20205;-63
2024/04/06 01:44:05;;;;;;;9.68;2.60;;;;;;;14.32;94.25;101103.56;4995622;28;20665;-63
2024/04/06 01:46:31;;;;;;;11.35;2.90;;;;;;;14.28;94.23;101111.81;4995746;28;20186;-63
2024/04/06 01:48:57;;;;;;;13.40;2.90;;;;;;;14.28;93.96;101103.72;4996020;28;20186;-63
2024/04/06 01:51:22;;;;;;;10.45;3.08;;;;;;;14.18;94.16;101102.50;4994294;28;20566;-63
2024/04/06 01:53:48;;;;;;;9.60;2.55;;;;;;;14.12;94.19;101094.75;4995457;28;20194;-63
2024/04/06 01:56:13;;;;;;;12.68;4.60;;;;;;;14.10;94.79;101091.25;4995479;28;20197;-63
2024/04/06 01:58:39;;;;;;;8.73;2.70;;;;;;;14.10;94.63;101099.34;4977768;28;20217;-63
2024/04/06 02:01:04;;;;;;;14.68;3.30;;;;;;;14.07;94.88;101092.31;4994410;28;20182;-63
2024/04/06 02:03:30;;;;;;;7.60;2.78;;;;;;;13.91;96.16;101105.72;4995607;28;20185;-63
2024/04/06 02:05:56;;;;;;;10.85;3.63;;;;;;;13.95;95.71;101078.63;4994763;28;20181;-62
2024/04/06 02:08:22;;;;;;;13.70;3.25;;;;;;;13.88;96.49;101089.72;4996610;28;20268;-63
2024/04/06 02:10:48;;;;;;;11.38;3.20;;;;;;;13.88;96.44;101086.16;4995449;28;20193;-63
2024/04/06 02:13:14;;;;;;;11.07;3.15;;;;;;;13.85;96.93;101075.56;4995019;28;20217;-63
2024/04/06 02:15:39;;;;;;;15.32;3.70;;;;;;;13.81;97.59;101069.44;4995009;28;20207;-63
2024/04/06 02:18:05;;;;;;;15.00;4.45;;;;;;;13.54;98.35;101066.41;4994878;28;20212;-62
2024/04/06 02:20:30;;;;;;;9.82;2.85;;;;;;;13.69;98.09;101072.78;4994948;28;20240;-63
2024/04/06 02:22:55;;;;;;;13.75;3.85;;;;;;;13.70;97.98;101072.69;4994870;28;20181;-63
2024/04/06 02:25:21;;;;;;;13.82;3.05;;;;;;;13.65;97.61;101052.38;4994873;28;20209;-62
2024/04/06 02:27:47;;;;;;;10.68;3.22;;;;;;;13.69;97.49;101068.28;4994939;28;20190;-62
2024/04/06 02:30:12;;;;;;;9.70;3.08;;;;;;;13.66;98.14;101059.47;4994709;28;20185;-62
2024/04/06 02:32:38;;;;;;;12.15;4.28;;;;;;;13.60;98.36;101055.31;4994733;28;20202;-62
2024/04/06 02:35:04;;;;;;;14.02;3.95;;;;;;;13.67;98.47;101051.31;4994573;28;20186;-62
2024/04/06 02:37:30;;;;;;;17.02;5.55;;;;;;;13.59;98.94;101047.31;4994699;28;20209;-64
2024/04/06 02:39:55;;;;;;;14.38;4.97;;;;;;;13.53;100.00;101062.81;4994657;28;20192;-63
2024/04/06 02:42:21;;;;;;;14.32;4.65;;;;;;;13.40;100.00;101059.03;4994707;28;20225;-62
2024/04/06 02:44:46;;;;;;;11.57;4.38;;;;;;;13.36;100.00;101055.63;4994711;28;20189;-63
2024/04/06 02:47:11;;;;;;;9.57;4.30;;;;;;;13.40;100.00;101063.53;4994546;28;20185;-63
2024/04/06 02:49:37;;;;;;;11.13;5.03;;;;;;;13.34;100.00;101057.53;4994512;28;20205;-62
2024/04/06 02:52:02;;;;;;;15.27;4.53;;;;;;;13.23;100.00;101065.25;4994557;28;20186;-62
2024/04/06 02:54:27;;;;;;;21.05;4.95;;;;;;;13.14;100.00;101063.00;4994280;28;20197;-63
2024/04/06 02:56:53;;;;;;;19.48;5.05;;;;;;;13.32;100.00;101067.47;4994392;28;20189;-63
2024/04/06 02:59:18;;;;;;;12.73;5.63;;;;;;;13.28;100.00;101067.72;4994304;28;20291;-62
2024/04/06 03:01:43;;;;;;;15.75;5.47;;;;;;;13.17;100.00;101068.25;4994251;28;20178;-63
2024/04/06 03:04:09;;;;;;;16.50;6.03;;;;;;;13.27;100.00;101068.66;4994196;28;20273;-63
2024/04/06 03:06:34;;;;;;;13.98;5.80;;;;;;;13.26;100.00;101072.28;4994224;28;20186;-63
2024/04/06 03:09:00;;;;;;;16.60;6.32;;;;;;;13.23;100.00;101067.06;4994043;28;20668;-63
2024/04/06 03:11:25;;;;;;;14.63;6.57;;;;;;;13.17;100.00;101068.25;4994049;28;20190;-63
2024/04/06 03:13:50;;;;;;;15.90;7.22;;;;;;;13.15;100.00;101068.31;4993981;28;20182;-62
2024/04/06 03:16:16;;;;;;;16.70;6.93;;;;;;;13.11;100.00;101071.22;4994024;28;20307;-63
2024/04/06 03:18:41;;;;;;;19.58;7.55;;;;;;;13.27;100.00;101063.28;4976427;28;20217;-62
2024/04/06 03:21:07;;;;;;;14.48;6.82;;;;;;;13.19;100.00;101066.34;4994290;28;20196;-62
2024/04/06 03:23:32;;;;;;;17.50;7.93;;;;;;;13.17;100.00;101070.94;4981664;28;20265;-62
2024/04/06 03:25:57;;;;;;;20.35;7.75;;;;;;;13.15;100.00;101079.06;4994203;28;20536;-62
2024/04/06 03:28:23;;;;;;;19.77;7.40;;;;;;;13.14;100.00;101079.13;4993961;28;20185;-62
2024/04/06 03:30:48;;;;;;;15.70;7.25;;;;;;;13.03;100.00;101059.03;4993904;28;20601;-62
2024/04/06 03:33:14;;;;;;;13.57;7.90;;;;;;;12.84;100.00;101053.69;4994019;28;20194;-62
2024/04/06 03:35:39;;;;;;;17.30;7.93;;;;;;;12.83;100.00;101046.59;4993670;28;20288;-63
2024/04/06 03:38:04;;;;;;;14.10;7.03;;;;;;;12.90;100.00;101041.78;4993668;28;20201;-63
2024/04/06 03:40:30;;;;;;;14.10;7.88;;;;;;;12.98;100.00;101053.00;4993654;28;20273;-63
2024/04/06 03:42:56;;;;;;;15.93;6.57;;;;;;;12.99;100.00;101041.31;4993554;28;20561;-62
2024/04/06 03:45:21;;;;;;;12.88;8.18;;;;;;;12.92;100.00;101042.56;4993897;28;20194;-62
2024/04/06 03:47:47;;;;;;;14.80;9.48;;;;;;;13.05;100.00;101032.06;4993656;28;20742;-63
2024/04/06 03:50:14;;;;;;;17.13;9.40;;;;;;;13.08;100.00;101033.72;4993421;28;20217;-63
2024/04/06 03:52:39;;;;;;;19.85;10.52;;;;;;;12.93;100.00;101024.63;4993586;28;20645;-63
2024/04/06 03:55:04;;;;;;;19.70;9.65;;;;;;;12.95;100.00;101020.03;4993495;28;20193;-63
2024/04/06 03:57:30;;;;;;;19.92;9.32;;;;;;;12.96;100.00;101019.97;4993322;28;20209;-63
2024/04/06 03:59:55;;;;;;;21.00;10.07;;;;;;;12.95;100.00;101012.81;4993690;28;20383;-63
2024/04/06 04:02:21;;;;;;;16.25;9.23;;;;;;;12.82;100.00;100992.91;4993548;28;20216;-63
2024/04/06 04:04:46;;;;;;;12.65;7.45;;;;;;;12.94;100.00;101010.22;4993409;28;20190;-63
2024/04/06 04:07:12;;;;;;;19.63;8.52;;;;;;;12.97;100.00;101008.25;4993385;28;20189;-63
2024/04/06 04:09:37;;;;;;;18.08;7.90;;;;;;;13.05;100.00;101006.97;4993637;28;20186;-63
2024/04/06 04:12:02;;;;;;;14.23;7.88;;;;;;;12.99;100.00;101003.66;4993307;28;20182;-63
2024/04/06 04:14:29;;;;;;;19.70;9.70;;;;;;;12.91;100.00;100978.09;4993417;28;20193;-63
2024/04/06 04:16:54;;;;;;;16.02;8.90;;;;;;;13.07;100.00;100978.22;4975726;28;20641;-63
2024/04/06 04:19:19;;;;;;;12.10;9.27;;;;;;;13.09;100.00;100977.16;4993762;28;20197;-63
2024/04/06 04:21:45;;;;;;;17.33;8.63;;;;;;;13.07;100.00;100960.25;4993058;28;20273;-63
2024/04/06 04:24:11;;;;;;;23.67;12.85;;;;;;;12.91;100.00;100956.59;4994490;28;20240;-63
2024/04/06 04:26:37;;;;;;;22.85;14.15;;;;;;;12.91;100.00;100970.03;4997088;28;20255;-63
2024/04/06 04:29:02;;;;;;;24.08;12.88;;;;;;;12.99;100.00;100973.22;4997354;28;20567;-63
2024/04/06 04:31:28;;;;;;;22.08;13.80;;;;;;;13.09;100.00;100985.22;4997017;28;20197;-63
2024/04/06 04:33:53;;;;;;;19.98;13.70;;;;;;;13.13;100.00;100978.75;4997108;28;20221;-63
2024/04/06 04:36:19;;;;;;;23.90;15.68;;;;;;;13.06;100.00;100984.53;4995524;28;20225;-63
2024/04/06 04:38:44;;;;;;;20.58;14.80;;;;;;;13.13;100.00;100973.38;4996806;28;20563;-63
2024/04/06 04:41:09;;;;;;;26.55;15.98;;;;;;;13.06;100.00;100980.00;4996701;28;20268;-63
2024/04/06 04:43:35;;;;;;;22.50;14.90;;;;;;;13.07;100.00;100978.22;4996783;28;20185;-63
2024/04/06 04:46:00;;;;;;;23.70;15.35;;;;;;;13.05;100.00;100983.66;4996649;28;20186;-63
2024/04/06 04:48:33;;;;;;;26.88;18.00;;;;;;;13.02;100.00;100978.44;4996677;28;20189;-64
2024/04/06 04:50:59;;;;;;;33.63;20.25;;;;;;;13.13;100.00;100961.75;4997132;28;20178;-64
2024/04/06 04:53:24;;;;;;;42.20;26.80;;;;;;;13.17;100.00;100963.34;4996756;28;20224;-64
2024/04/06 04:55:50;;;;;;;43.42;31.60;;;;;;;13.03;100.00;100945.22;4996524;28;20189;-64
2024/04/06 04:58:15;;;;;;;40.88;30.13;;;;;;;13.25;100.00;100946.81;4997321;28;20213;-63
2024/04/06 05:00:41;;;;;;;44.00;34.15;;;;;;;13.21;100.00;100935.31;4997983;28;20236;-63
2024/04/06 05:03:06;;;;;;;46.30;32.25;;;;;;;13.19;100.00;100924.63;4997248;28;20182;-63
2024/04/06 05:05:33;;;;;;;44.83;32.40;;;;;;;13.28;100.00;100933.19;4996175;28;20649;-63
2024/04/06 05:07:58;;;;;;;41.92;31.05;;;;;;;13.44;100.00;100936.81;4996327;28;20190;-63
2024/04/06 05:10:24;;;;;;;35.97;27.35;;;;;;;13.47;100.00;100938.47;4996285;28;20192;-63
2024/04/06 05:12:49;;;;;;;32.00;23.48;;;;;;;13.62;100.00;100940.34;4996368;28;20185;-63
2024/04/06 05:15:14;;;;;;;29.08;21.35;;;;;;;13.55;100.00;100947.00;4995903;28;20543;-63
2024/04/06 05:17:40;;;;;;;28.50;20.77;;;;;;;13.60;100.00;100936.88;4996080;28;20614;-63
2024/04/06 05:20:05;;;;;;;33.45;21.25;;;;;;;13.13;100.00;100935.72;4995890;28;20209;-63
2024/04/06 05:22:31;;;;;;;26.95;20.05;;;;;;;13.52;100.00;100925.63;4996482;28;20516;-63
2024/04/06 05:24:57;;;;;;;28.60;18.58;;;;;;;13.34;100.00;100932.91;4983376;28;20225;-64
2024/04/06 05:27:24;;;;;;;28.52;20.13;;;;;;;13.44;100.00;100944.88;4996203;28;20214;-63
2024/04/06 05:29:49;;;;;;;26.50;19.75;;;;;;;13.45;100.00;100949.31;4997977;28;20611;-63
2024/04/06 05:32:15;;;;;;;25.98;18.75;;;;;;;13.46;100.00;100950.19;4995899;28;20181;-63
2024/04/06 05:34:40;;;;;;;25.80;19.40;;;;;;;13.51;100.00;100961.59;4995666;28;20237;-63
2024/04/06 05:37:05;;;;;;;22.13;16.77;;;;;;;13.62;100.00;100945.72;4994605;28;20208;-63
2024/04/06 05:39:31;;;;;;;27.05;18.05;;;;;;;13.72;100.00;100943.41;4995444;28;20671;-63
2024/04/06 05:41:56;;;;;;;22.25;13.93;;;;;;;13.73;100.00;100937.06;4995855;28;20228;-63
2024/04/06 05:44:23;;;;;;;18.92;12.82;;;;;;;13.79;100.00;100955.56;4995690;28;20571;-63
2024/04/06 05:46:49;;;;;;;20.02;11.20;;;;;;;13.73;100.00;100945.16;4995256;28;20613;-63
2024/04/06 05:49:14;;;;;;;15.10;10.20;;;;;;;13.82;100.00;100965.31;4995589;28;20186;-64
2024/04/06 05:51:39;;;;;;;18.20;10.35;;;;;;;13.86;100.00;100975.84;4995321;28;20277;-64
2024/04/06 05:54:05;;;;;;;15.82;10.55;;;;;;;13.86;100.00;100989.31;4995150;28;20661;-64
2024/04/06 05:56:30;;;;;;;14.52;9.93;;;;;;;13.86;100.00;100970.44;4994189;28;20555;-63
2024/04/06 05:58:55;;;;;;;12.05;8.75;;;;;;;13.71;100.00;100956.00;4994985;28;20237;-63
2024/04/06 06:01:22;;;;;;;16.08;9.45;;;;;;;13.94;100.00;100972.72;4995202;28;20252;-63
2024/04/06 06:03:47;;;;;;;12.00;8.60;;;;;;;13.91;100.00;100959.44;4995438;28;20189;-63
2024/04/06 06:06:13;;;;;;;15.40;8.57;;;;;;;13.83;100.00;100957.16;4995271;28;20194;-63
2024/04/06 06:08:39;;;;;;;12.95;7.72;;;;;;;13.90;100.00;100947.78;4995422;28;20189;-63
2024/04/06 06:11:05;;;;;;;13.68;7.72;;;;;;;13.90;100.00;100963.97;4995010;28;20551;-63
2024/04/06 06:13:30;;;;;;;16.02;8.38;;;;;;;13.99;100.00;100954.47;4994872;28;20193;-63
2024/04/06 06:15:55;;;;;;;11.95;8.15;;;;;;;14.04;100.00;100965.88;4994998;28;20182;-63
2024/04/06 06:18:21;;;;;;;13.45;8.05;;;;;;;13.91;100.00;100960.28;4994646;28;20258;-63
2024/04/06 06:20:46;;;;;;;12.13;8.50;;;;;;;13.95;100.00;100952.03;4994847;28;20186;-63
2024/04/06 06:23:12;;;;;;;13.70;9.32;;;;;;;14.09;100.00;100958.41;4994902;28;20182;-63
2024/04/06 06:25:38;;;;;;;11.90;7.85;;;;;;;14.27;100.00;100966.38;4995480;28;20189;-63
2024/04/06 06:28:03;;;;;;;13.80;9.60;;;;;;;14.28;100.00;100955.53;4994889;28;20186;-63
2024/04/06 06:30:29;;;;;;;15.50;8.05;;;;;;;14.37;100.00;100954.16;4995132;28;20328;-63
2024/04/06 06:32:56;;;;;;;13.35;7.65;;;;;;;14.41;100.00;100947.63;4994788;28;20193;-63
2024/04/06 06:35:22;;;;;;;16.55;8.63;;;;;;;14.54;100.00;100957.69;4994823;28;20241;-63
2024/04/06 06:37:47;;;;;;;11.95;7.88;;;;;;;14.66;100.00;100958.84;4994748;28;20237;-63
2024/04/06 06:40:12;;;;;;;13.88;8.40;;;;;;;14.65;100.00;100957.97;4995895;28;20189;-63
2024/04/06 06:42:38;;;;;;;8.60;7.45;;;;;;;14.62;100.00;100950.06;4991431;28;20183;-64
2024/04/06 06:45:05;;;;;;;12.48;8.05;;;;;;;14.63;100.00;100958.06;4985957;28;20649;-63
2024/04/06 06:47:34;;;;;;;11.90;8.50;;;;;;;14.49;100.00;100957.97;4993303;28;20241;-64
2024/04/06 06:50:00;;;;;;;13.27;7.03;;;;;;;14.67;100.00;100961.47;4994764;28;20264;-63
2024/04/06 06:52:25;;;;;;;10.57;6.75;;;;;;;15.01;100.00;100956.78;4994701;28;20186;-63
2024/04/06 06:54:51;;;;;;;13.07;7.60;;;;;;;15.12;100.00;100948.03;4993504;28;20221;-63
2024/04/06 06:57:16;;;;;;;11.88;7.22;;;;;;;15.08;100.00;100944.63;4994515;28;20315;-63
2024/04/06 06:59:41;;;;;;;13.48;8.07;;;;;;;15.35;100.00;100943.91;4994004;28;20309;-63
2024/04/06 07:02:07;;;;;;;11.40;7.57;;;;;;;15.48;100.00;100927.81;4993410;28;20194;-63
2024/04/06 07:04:33;;;;;;;12.25;7.68;;;;;;;15.46;100.00;100927.91;4994453;28;20205;-63
2024/04/06 07:06:58;;;;;;;13.50;7.50;;;;;;;15.70;100.00;100939.03;4994732;28;20186;-63
2024/04/06 07:09:24;;;;;;;10.10;5.88;;;;;;;16.25;100.00;100930.19;4994437;28;20208;-64
2024/04/06 07:11:49;;;;;;;7.70;4.15;;;;;;;16.86;100.00;100925.22;4990829;28;20244;-63
2024/04/06 07:14:14;;;;;;;5.15;3.63;;;;;;;17.32;100.00;100922.09;4989500;28;20206;-64
2024/04/06 07:16:40;;;;;;;10.13;4.10;;;;;;;17.56;98.36;100900.50;4988780;28;20181;-64
2024/04/06 07:19:06;;;;;;;6.22;2.85;;;;;;;17.77;94.92;100911.66;4993229;28;20225;-63
2024/04/06 07:21:32;;;;;;;7.97;2.92;;;;;;;17.98;93.39;100903.84;4992956;28;20192;-64
2024/04/06 07:23:57;;;;;;;9.07;3.50;;;;;;;18.21;89.07;100905.81;4991617;28;20611;-63
2024/04/06 07:26:24;;;;;;;9.13;3.55;;;;;;;18.54;87.06;100905.16;4989944;28;20185;-63
2024/04/06 07:28:50;;;;;;;6.28;3.20;;;;;;;18.61;86.24;100901.00;4993629;28;20272;-63
2024/04/06 07:31:16;;;;;;;5.40;3.28;;;;;;;18.48;85.91;100873.06;4993680;28;20657;-63
2024/04/06 07:33:41;;;;;;;5.15;3.10;;;;;;;18.93;84.05;100891.38;4992320;28;20247;-67
2024/04/06 07:36:07;;;;;;;7.75;3.10;;;;;;;19.23;81.22;100889.00;4993636;28;20229;-66
2024/04/06 07:38:32;;;;;;;6.00;2.92;;;;;;;19.70;81.36;100874.44;4992505;28;20700;-66
2024/04/06 07:40:59;;;;;;;8.73;2.92;;;;;;;20.19;78.40;100888.63;4994375;28;20193;-66
2024/04/06 07:43:25;;;;;;;7.35;2.38;;;;;;;20.17;76.20;100886.03;4976169;28;20212;-66
2024/04/06 07:45:50;;;;;;;5.28;2.13;;;;;;;20.27;74.74;100845.31;4993504;28;20220;-66
2024/04/06 07:48:16;;;;;;;5.75;2.75;;;;;;;20.73;73.49;100882.25;4993411;28;20181;-67
2024/04/06 07:50:41;;;;;;;9.18;2.65;;;;;;;20.85;72.98;100869.47;4993569;28;20192;-66
2024/04/06 07:53:07;;;;;;;5.55;2.47;;;;;;;20.96;72.96;100863.94;4993476;28;20182;-66
2024/04/06 07:55:32;;;;;;;10.13;2.63;;;;;;;20.95;71.07;100866.78;4993119;28;20283;-66
2024/04/06 07:57:58;;;;;;;3.97;2.58;;;;;;;20.80;72.08;100852.66;4993299;28;20234;-66
2024/04/06 08:00:23;;;;;;;3.50;1.73;;;;;;;21.10;71.11;100854.59;4996628;28;20225;-66
2024/04/06 08:02:48;;;;;;;5.25;2.60;;;;;;;21.05;70.59;100858.72;4997598;28;20189;-66
2024/04/06 08:05:14;;;;;;;4.68;2.28;;;;;;;20.75;70.32;100839.44;4997078;28;20188;-66
2024/04/06 08:07:39;;;;;;;2.80;1.98;;;;;;;20.54;71.06;100858.44;4996312;28;20177;-66
2024/04/06 08:10:19;;;;;;;8.88;2.40;;;;;;;20.46;72.15;100833.75;4997061;28;20214;-67
2024/04/06 08:12:44;;;;;;;6.28;2.83;;;;;;;20.42;72.73;100835.00;4997267;28;20189;-66
2024/04/06 08:15:11;;;;;;;8.98;2.78;;;;;;;20.30;73.86;100829.59;4997175;28;20191;-66
2024/04/06 08:17:41;;;;;;;5.95;2.53;;;;;;;20.53;73.09;100823.19;4997333;28;20297;-66
2024/04/06 08:20:07;;;;;;;5.68;2.40;;;;;;;21.09;71.03;100824.75;4997173;28;20181;-66
2024/04/06 08:22:32;;;;;;;6.50;2.10;;;;;;;21.27;68.39;100830.44;4997184;28;20190;-66
2024/04/06 08:24:58;;;;;;;5.63;2.33;;;;;;;21.30;69.10;100825.59;4995560;28;20192;-67
2024/04/06 08:27:24;;;;;;;5.13;2.47;;;;;;;21.43;68.26;100830.78;4995933;28;20269;-66
2024/04/06 08:29:51;;;;;;;5.53;2.50;;;;;;;21.43;67.83;100824.50;4995518;28;20182;-67
2024/04/06 08:32:17;;;;;;;8.30;2.60;;;;;;;21.45;68.42;100828.78;4996923;28;20182;-66
2024/04/06 08:34:43;;;;;;;4.85;2.42;;;;;;;21.19;67.54;100799.28;4996682;28;20188;-66
2024/04/06 08:37:08;;;;;;;6.57;2.25;;;;;;;21.04;68.84;100797.91;4996546;28;20237;-67
2024/04/06 08:39:34;;;;;;;6.18;2.33;;;;;;;21.45;69.23;100806.97;4996591;28;20181;-66
2024/04/06 08:42:01;;;;;;;7.03;2.50;;;;;;;21.83;67.23;100810.88;4996784;28;20190;-67
2024/04/06 08:44:42;;;;;;;6.15;2.00;;;;;;;22.14;66.21;100777.16;4996795;28;20599;-67
2024/04/06 08:47:10;;;;;;;6.25;2.70;;;;;;;21.91;63.99;100799.25;4996526;28;20213;-67
2024/04/06 08:49:35;;;;;;;6.72;2.72;;;;;;;21.33;66.68;100811.69;4981792;28;20193;-67
2024/04/06 08:52:01;;;;;;;7.50;2.88;;;;;;;20.91;68.84;100800.00;4995202;28;20186;-67
2024/04/06 08:54:26;;;;;;;4.45;2.45;;;;;;;21.08;68.91;100784.88;4996489;28;20190;-67
2024/04/06 08:56:52;;;;;;;6.95;2.88;;;;;;;20.78;70.13;100797.47;4996395;28;20197;-66
2024/04/06 08:59:18;;;;;;;6.22;2.58;;;;;;;20.96;70.01;100797.72;4995088;28;20696;-66
2024/04/06 09:01:44;;;;;;;8.07;2.83;;;;;;;21.42;68.06;100799.06;4996478;28;20592;-67
2024/04/06 09:04:09;;;;;;;5.70;2.55;;;;;;;21.65;67.42;100791.59;4996451;28;20189;-67
2024/04/06 09:06:35;;;;;;;6.50;2.45;;;;;;;21.28;67.38;100781.25;4996033;28;20539;-67
2024/04/06 09:09:00;;;;;;;6.32;3.10;;;;;;;21.28;67.99;100777.66;4995133;28;20225;-67
2024/04/06 09:11:25;;;;;;;6.70;2.50;;;;;;;21.39;67.69;100774.81;4995660;28;20182;-66
2024/04/06 09:13:51;;;;;;;4.40;2.53;;;;;;;21.19;68.32;100754.81;4996237;28;20186;-68
2024/04/06 09:16:16;;;;;;;5.13;2.45;;;;;;;21.29;68.00;100754.88;4995947;28;20240;-66
2024/04/06 09:18:41;;;;;;;5.97;2.58;;;;;;;21.26;68.28;100746.97;4987324;28;20216;-68
2024/04/06 09:21:07;;;;;;;5.95;3.38;;;;;;;21.08;69.31;100747.63;4995839;28;20626;-66
2024/04/06 09:23:34;;;;;;;5.75;2.40;;;;;;;20.99;70.34;100741.13;4995538;28;20198;-67
2024/04/06 09:26:02;;;;;;;5.88;2.30;;;;;;;20.99;70.55;100735.66;4996376;28;20200;-66
2024/04/06 09:28:28;;;;;;;4.43;1.85;;;;;;;20.85;69.67;100720.56;4996099;28;20572;-67
2024/04/06 09:30:58;;;;;;;4.65;2.13;;;;;;;21.11;69.47;100735.59;4978723;28;20201;-67
2024/04/06 09:33:24;;;;;;;6.50;1.85;;;;;;;21.29;67.39;100724.91;4995624;28;20625;-67
2024/04/06 09:35:50;;;;;;;4.40;1.92;;;;;;;21.12;66.37;100718.25;4995610;28;20241;-66
2024/04/06 09:38:16;;;;;;;4.53;2.00;;;;;;;20.99;66.92;100702.97;4995259;28;20600;-66
2024/04/06 09:40:44;;;;;;;4.68;2.72;;;;;;;20.85;66.35;100685.16;4995759;28;20186;-67
2024/04/06 09:43:09;;;;;;;5.00;1.80;;;;;;;21.01;66.26;100714.63;4994360;28;20186;-66
2024/04/06 09:45:36;;;;;;;3.67;1.98;;;;;;;21.01;66.60;100711.91;4994410;28;20185;-66
2024/04/06 09:48:01;;;;;;;3.65;1.85;;;;;;;20.76;67.39;100696.00;4995603;28;20193;-68
2024/04/06 09:50:29;;;;;;;8.57;2.78;;;;;;;21.17;66.39;100683.28;4995503;28;20258;-67
2024/04/06 09:52:55;;;;;;;5.60;2.08;;;;;;;21.12;67.47;100685.56;4995390;28;20219;-67
2024/04/06 09:55:20;;;;;;;4.57;2.25;;;;;;;21.12;67.10;100680.13;4986297;28;20224;-67
2024/04/06 09:57:46;;;;;;;4.53;2.20;;;;;;;21.22;66.61;100678.25;4995176;28;20700;-67
2024/04/06 10:00:12;;;;;;;6.22;2.67;;;;;;;20.89;67.51;100674.88;4994965;28;20226;-66
2024/04/06 10:02:39;;;;;;;5.47;2.35;;;;;;;21.03;67.44;100689.97;4994997;28;20218;-66
2024/04/06 10:05:05;;;;;;;3.80;2.10;;;;;;;21.12;68.10;100691.88;4995221;28;20545;-66
2024/04/06 10:07:32;;;;;;;6.13;2.05;;;;;;;21.28;68.42;100682.31;4994914;28;20186;-67
2024/04/06 10:10:07;;;;;;;3.67;1.90;;;;;;;21.40;66.38;100688.50;4994891;28;20240;-66
2024/04/06 10:12:45;;;;;;;4.95;2.30;;;;;;;21.43;66.43;100704.56;4993934;28;20303;-66
2024/04/06 10:15:15;;;;;;;8.45;2.08;;;;;;;21.20;67.64;100704.78;4964371;28;20243;-66
2024/04/06 10:17:52;;;;;;;7.28;2.20;;;;;;;21.10;64.53;100687.56;4995524;28;20205;-67
2024/04/06 10:20:26;;;;;;;4.25;1.73;;;;;;;21.23;64.13;100704.53;4994606;28;20347;-67
2024/04/06 10:22:53;;;;;;;5.80;2.15;;;;;;;21.07;64.03;100694.16;4987234;28;20194;-66
2024/04/06 10:25:26;;;;;;;2.92;2.03;;;;;;;21.12;63.74;100707.38;4990331;28;20232;-68
2024/04/06 10:28:04;;;;;;;4.35;2.08;;;;;;;21.64;63.75;100688.13;4993318;28;20186;-68
2024/04/06 10:30:32;;;;;;;6.35;2.00;;;;;;;21.62;62.71;100696.44;4994689;28;20192;-66
2024/04/06 10:32:57;;;;;;;3.30;1.77;;;;;;;21.60;62.32;100692.16;4994406;28;20557;-67
2024/04/06 10:35:23;;;;;;;5.00;1.95;;;;;;;21.54;62.91;100690.84;4993200;28;20248;-66
2024/04/06 10:37:49;;;;;;;6.03;1.45;;;;;;;21.54;62.16;100666.31;4994136;28;20268;-67
2024/04/06 10:40:15;;;;;;;5.28;2.05;;;;;;;21.90;62.19;100661.19;4994291;28;20663;-67
2024/04/06 10:42:41;;;;;;;3.58;1.30;;;;;;;21.98;61.37;100652.28;4992910;28;20198;-67
2024/04/06 10:45:08;;;;;;;4.38;1.60;;;;;;;21.87;60.58;100637.78;4994577;28;20185;-67
2024/04/06 10:47:34;;;;;;;4.25;1.75;;;;;;;21.81;60.99;100632.03;4994489;28;20194;-67
2024/04/06 10:49:59;;;;;;;3.83;1.40;;;;;;;21.60;60.13;100629.47;4994411;28;20244;-67
2024/04/06 10:52:25;;;;;;;3.65;1.60;;;;;;;21.36;61.55;100622.50;4993745;28;20251;-67
2024/04/06 10:54:50;;;;;;;4.97;1.90;;;;;;;21.68;61.45;100625.00;4994197;28;20194;-66
2024/04/06 10:57:16;;;;;;;6.13;1.65;;;;;;;21.67;61.42;100617.84;4993944;28;20657;-66
2024/04/06 10:59:42;;;;;;;6.80;1.70;;;;;;;21.88;61.69;100614.09;4976434;28;20609;-67
2024/04/06 11:02:07;;;;;;;3.83;2.08;;;;;;;21.90;60.59;100617.53;4993853;28;20201;-67
2024/04/06 11:04:50;;;;;;;4.97;1.60;;;;;;;22.03;60.06;100592.69;4994174;28;20236;-67
2024/04/06 11:07:16;;;;;;;4.80;1.48;;;;;;;22.18;59.99;100601.25;4993941;28;20236;-67
2024/04/06 11:09:41;;;;;;;5.45;1.83;;;;;;;22.06;59.36;100598.69;4992749;28;20596;-68
2024/04/06 11:12:07;;;;;;;3.45;2.00;;;;;;;22.43;59.54;100583.38;4993820;28;20197;-67